Time;durP1;ratioP1;P1;durP2;ratioP2;P2;SDS_P1;SDS_P2;PMS_P1;PMS_P2;Temp;Humidity;BMP_temperature;BMP_pressure;BME280_temperature;BME280_humidity;BME280_pressure;Samples;Min_cycle;Max_cycle;Signal;HPM_P1;HPM_P2
2021/12/22 00:02:07;;;;;;;54.53;31.00;;;;;;;;;;5155310;27;20042;-72
2021/12/22 00:04:39;;;;;;;46.58;28.77;;;;;;;;;;5155604;27;20111;-72
2021/12/22 00:07:05;;;;;;;46.77;27.87;;;;;;;;;;5137275;27;20086;-72
2021/12/22 00:09:31;;;;;;;46.30;27.33;;;;;;;;;;5154255;27;20438;-72
2021/12/22 00:11:57;;;;;;;45.88;28.38;;;;;;;;;;5154712;27;20494;-72
2021/12/22 00:14:23;;;;;;;40.83;27.65;;;;;;;;;;5155254;27;20047;-72
2021/12/22 00:16:49;;;;;;;42.17;28.10;;;;;;;;;;5159824;27;20047;-72
2021/12/22 00:19:16;;;;;;;43.03;28.25;;;;;;;;;;5143112;27;20054;-72
2021/12/22 00:21:42;;;;;;;44.00;28.38;;;;;;;;;;5162028;27;20054;-72
2021/12/22 00:24:08;;;;;;;41.58;27.95;;;;;;;;;;5144481;27;20374;-71
2021/12/22 00:26:34;;;;;;;42.42;27.90;;;;;;;;;;5161814;27;20046;-71
2021/12/22 00:29:00;;;;;;;41.33;28.02;;;;;;;;;;5161637;27;20106;-71
2021/12/22 00:31:27;;;;;;;;;;;;;;;;;;5162350;27;20046;-71
2021/12/22 00:33:55;;;;;;;40.03;28.17;;;;;;;;;;5161652;27;20327;-71
2021/12/22 00:36:22;;;;;;;46.87;28.80;;;;;;;;;;5162411;27;20046;-71
2021/12/22 00:38:49;;;;;;;43.60;28.67;;;;;;;;;;5162660;27;20054;-71
2021/12/22 00:41:15;;;;;;;41.40;28.70;;;;;;;;;;5162627;27;20043;-71
2021/12/22 00:43:41;;;;;;;;;;;;;;;;;;5162341;27;20050;-71
2021/12/22 00:46:08;;;;;;;39.93;26.73;;;;;;;;;;5162599;27;19971;-72
2021/12/22 00:48:34;;;;;;;48.00;29.17;;;;;;;;;;5162082;27;20539;-72
2021/12/22 00:51:00;;;;;;;40.67;27.02;;;;;;;;;;5161637;27;20042;-71
2021/12/22 00:53:26;;;;;;;40.83;27.13;;;;;;;;;;5161823;27;20095;-73
2021/12/22 00:55:53;;;;;;;40.85;27.85;;;;;;;;;;5143318;27;20099;-72
2021/12/22 00:58:20;;;;;;;40.07;28.10;;;;;;;;;;5161668;27;20038;-72
2021/12/22 01:00:47;;;;;;;44.43;29.03;;;;;;;;;;5161642;27;20039;-72
2021/12/22 01:03:14;;;;;;;41.87;28.40;;;;;;;;;;5143120;27;20035;-72
2021/12/22 01:05:40;;;;;;;43.53;27.30;;;;;;;;;;5161714;27;20091;-72
2021/12/22 01:08:06;;;;;;;;;;;;;;;;;;5143524;27;20042;-72
2021/12/22 01:10:32;;;;;;;45.67;28.13;;;;;;;;;;5161917;27;20418;-72
2021/12/22 01:13:00;;;;;;;41.83;28.08;;;;;;;;;;5161590;27;20038;-72
2021/12/22 01:15:26;;;;;;;42.47;26.47;;;;;;;;;;5162024;27;20043;-72
2021/12/22 01:18:36;;;;;;;43.07;27.93;;;;;;;;;;5161424;27;20054;-73
2021/12/22 01:23:33;;;;;;;42.07;26.67;;;;;;;;;;5145909;27;20133;-72
2021/12/22 01:25:59;;;;;;;38.77;27.30;;;;;;;;;;5161524;27;20054;-72
2021/12/22 01:28:27;;;;;;;45.97;28.13;;;;;;;;;;5157986;27;20127;-72
2021/12/22 01:30:55;;;;;;;46.90;28.73;;;;;;;;;;5158484;27;20058;-72
2021/12/22 01:33:21;;;;;;;45.13;27.93;;;;;;;;;;5157946;27;20057;-71
2021/12/22 01:35:47;;;;;;;48.63;28.92;;;;;;;;;;5139858;27;20046;-72
2021/12/22 01:38:14;;;;;;;43.15;26.83;;;;;;;;;;5157967;27;20500;-71
2021/12/22 01:40:41;;;;;;;45.42;28.13;;;;;;;;;;5158160;27;20088;-72
2021/12/22 01:43:08;;;;;;;42.47;26.77;;;;;;;;;;5158193;27;20118;-72
2021/12/22 01:51:30;;;;;;;39.83;26.87;;;;;;;;;;5152360;27;20050;-71
2021/12/22 01:54:01;;;;;;;43.57;27.33;;;;;;;;;;5157938;27;20501;-71
2021/12/22 01:56:30;;;;;;;42.57;27.93;;;;;;;;;;5139066;27;20039;-72
2021/12/22 01:58:58;;;;;;;41.37;25.63;;;;;;;;;;5157625;27;20053;-71
2021/12/22 02:01:24;;;;;;;38.87;26.70;;;;;;;;;;5157252;27;20035;-71
2021/12/22 02:03:51;;;;;;;43.77;27.30;;;;;;;;;;5157532;27;20042;-71
2021/12/22 02:06:18;;;;;;;41.27;25.87;;;;;;;;;;5157410;27;20042;-71
2021/12/22 02:08:45;;;;;;;42.47;25.47;;;;;;;;;;5157697;27;20050;-71
2021/12/22 02:11:12;;;;;;;42.20;26.80;;;;;;;;;;5157386;27;20047;-71
2021/12/22 02:13:41;;;;;;;44.63;27.07;;;;;;;;;;5157575;27;20043;-71
2021/12/22 02:16:11;;;;;;;43.40;26.57;;;;;;;;;;5157300;27;20125;-72
2021/12/22 02:18:39;;;;;;;39.93;27.33;;;;;;;;;;5156835;27;20059;-71
2021/12/22 02:21:06;;;;;;;44.23;27.83;;;;;;;;;;5157183;27;20510;-71
2021/12/22 02:23:32;;;;;;;40.13;27.23;;;;;;;;;;5157090;27;20054;-71
2021/12/22 02:26:07;;;;;;;46.30;29.15;;;;;;;;;;5157057;27;20046;-71
2021/12/22 02:28:36;;;;;;;43.27;27.63;;;;;;;;;;5157493;27;20117;-71
2021/12/22 02:31:02;;;;;;;41.67;27.77;;;;;;;;;;5138510;27;20054;-71
2021/12/22 02:33:39;;;;;;;42.40;28.30;;;;;;;;;;5156903;27;20046;-71
2021/12/22 02:38:46;;;;;;;45.80;28.67;;;;;;;;;;5156724;27;20054;-70
2021/12/22 02:41:14;;;;;;;42.80;28.47;;;;;;;;;;5138337;27;20098;-71
2021/12/22 02:43:47;;;;;;;43.50;28.30;;;;;;;;;;5156664;27;20100;-70
2021/12/22 02:46:14;;;;;;;46.67;27.83;;;;;;;;;;5157355;27;20050;-71
2021/12/22 02:48:41;;;;;;;51.27;29.50;;;;;;;;;;5156573;27;20084;-70
2021/12/22 02:51:07;;;;;;;45.33;28.20;;;;;;;;;;5156545;27;20049;-71
2021/12/22 03:04:11;;;;;;;45.73;28.23;;;;;;;;;;5156651;27;20097;-70
2021/12/22 03:06:54;;;;;;;43.90;27.37;;;;;;;;;;5156229;27;20470;-70
2021/12/22 03:09:20;;;;;;;38.23;26.43;;;;;;;;;;5156218;27;20479;-70
2021/12/22 03:11:46;;;;;;;37.72;25.83;;;;;;;;;;5156212;27;20049;-70
2021/12/22 03:14:12;;;;;;;;;;;;;;;;;;5156660;27;20050;-70
2021/12/22 03:16:42;;;;;;;43.83;25.70;;;;;;;;;;5138657;27;19944;-70
2021/12/22 03:19:09;;;;;;;44.73;27.13;;;;;;;;;;5138151;27;20093;-70
2021/12/22 03:21:35;;;;;;;40.13;26.07;;;;;;;;;;5155964;27;20067;-69
2021/12/22 03:24:01;;;;;;;39.10;25.52;;;;;;;;;;5156024;27;20428;-72
2021/12/22 03:26:29;;;;;;;39.78;25.15;;;;;;;;;;5155895;27;20046;-70
2021/12/22 03:28:55;;;;;;;40.67;25.30;;;;;;;;;;5138333;27;20065;-71
2021/12/22 03:31:21;;;;;;;;;;;;;;;;;;5156183;27;20050;-71
2021/12/22 03:33:47;;;;;;;41.50;26.27;;;;;;;;;;5155766;27;19926;-70
2021/12/22 03:36:14;;;;;;;38.55;26.25;;;;;;;;;;5155571;27;20111;-70
2021/12/22 03:38:40;;;;;;;;;;;;;;;;;;5156064;27;20461;-69
2021/12/22 03:41:07;;;;;;;40.53;24.83;;;;;;;;;;5155685;27;19962;-69
2021/12/22 03:43:33;;;;;;;42.07;25.83;;;;;;;;;;5156071;27;20046;-70
2021/12/22 03:46:00;;;;;;;36.42;25.02;;;;;;;;;;5137139;27;20053;-70
2021/12/22 03:48:26;;;;;;;37.03;24.80;;;;;;;;;;5155461;27;20051;-69
2021/12/22 03:50:53;;;;;;;40.00;25.80;;;;;;;;;;5136658;27;20051;-70
2021/12/22 03:53:19;;;;;;;39.13;26.17;;;;;;;;;;5137740;27;20380;-70
2021/12/22 03:55:45;;;;;;;38.92;24.40;;;;;;;;;;5137130;27;20111;-70
2021/12/22 03:58:11;;;;;;;42.38;25.08;;;;;;;;;;5155974;27;20043;-71
2021/12/22 04:00:39;;;;;;;45.20;25.65;;;;;;;;;;5155171;27;20066;-70
2021/12/22 04:03:05;;;;;;;38.07;24.57;;;;;;;;;;5155302;27;20071;-70
2021/12/22 04:05:31;;;;;;;;;;;;;;;;;;5156195;27;20084;-69
2021/12/22 04:07:57;;;;;;;41.23;24.70;;;;;;;;;;5155221;27;19927;-71
2021/12/22 04:10:25;;;;;;;42.15;24.13;;;;;;;;;;5155379;27;20055;-70
2021/12/22 04:12:55;;;;;;;38.23;25.10;;;;;;;;;;5155643;27;20046;-70
2021/12/22 04:15:22;;;;;;;37.03;23.97;;;;;;;;;;5155310;27;20054;-71
2021/12/22 04:17:48;;;;;;;37.77;23.53;;;;;;;;;;5136466;27;20050;-70
2021/12/22 04:20:15;;;;;;;38.88;22.48;;;;;;;;;;5155772;27;20092;-71
2021/12/22 04:22:41;;;;;;;;;;;;;;;;;;5156296;27;20042;-70
2021/12/22 04:25:08;;;;;;;39.33;23.67;;;;;;;;;;5155252;27;20418;-70
2021/12/22 04:27:35;;;;;;;41.93;24.00;;;;;;;;;;5155044;27;20520;-70
2021/12/22 04:30:01;;;;;;;42.10;24.07;;;;;;;;;;5154848;27;20448;-70
2021/12/22 04:32:27;;;;;;;38.38;23.50;;;;;;;;;;5136781;27;20482;-71
2021/12/22 04:34:53;;;;;;;41.28;23.60;;;;;;;;;;5155254;27;20111;-70
2021/12/22 04:37:19;;;;;;;36.22;24.10;;;;;;;;;;5136831;27;20057;-71
2021/12/22 04:39:46;;;;;;;41.67;25.27;;;;;;;;;;5155485;27;20042;-70
2021/12/22 04:42:12;;;;;;;41.58;24.80;;;;;;;;;;5137347;27;20083;-70
2021/12/22 04:44:38;;;;;;;42.83;25.08;;;;;;;;;;5136397;27;20053;-69
2021/12/22 04:47:04;;;;;;;37.63;23.50;;;;;;;;;;5154981;27;20038;-70
2021/12/22 04:49:30;;;;;;;42.25;25.20;;;;;;;;;;5154965;27;20054;-71
2021/12/22 04:51:58;;;;;;;38.38;24.63;;;;;;;;;;5136460;27;20051;-70
2021/12/22 04:56:53;;;;;;;36.87;24.57;;;;;;;;;;5154776;27;20053;-69
2021/12/22 04:59:20;;;;;;;40.00;25.65;;;;;;;;;;5154817;27;20051;-70
2021/12/22 05:01:46;;;;;;;42.90;24.73;;;;;;;;;;5154756;27;20092;-70
2021/12/22 05:04:12;;;;;;;37.85;23.98;;;;;;;;;;5158576;27;20050;-71
2021/12/22 05:06:38;;;;;;;38.33;24.10;;;;;;;;;;5158660;27;20434;-70
2021/12/22 05:09:04;;;;;;;34.97;23.60;;;;;;;;;;5158667;27;20054;-71
2021/12/22 05:11:31;;;;;;;40.37;25.63;;;;;;;;;;5158486;27;20038;-70
2021/12/22 05:13:57;;;;;;;39.25;24.10;;;;;;;;;;5159263;27;20068;-70
2021/12/22 05:16:23;;;;;;;43.47;25.17;;;;;;;;;;5159034;27;20388;-70
2021/12/22 05:21:26;;;;;;;43.57;23.97;;;;;;;;;;5158463;27;20057;-71
2021/12/22 05:23:53;;;;;;;37.63;23.37;;;;;;;;;;5158559;27;20051;-70
2021/12/22 05:26:19;;;;;;;44.20;25.63;;;;;;;;;;5158611;27;20042;-70
2021/12/22 05:28:45;;;;;;;39.55;24.48;;;;;;;;;;5158178;27;20394;-70
2021/12/22 05:31:11;;;;;;;39.75;23.73;;;;;;;;;;5158151;27;20474;-70
2021/12/22 05:33:37;;;;;;;39.90;24.15;;;;;;;;;;5158221;27;20086;-71
2021/12/22 05:36:04;;;;;;;42.90;25.35;;;;;;;;;;5158032;27;20065;-71
2021/12/22 05:38:30;;;;;;;41.92;23.95;;;;;;;;;;5158118;27;20051;-71
2021/12/22 05:40:56;;;;;;;38.47;23.52;;;;;;;;;;5157972;27;20497;-71
2021/12/22 05:43:22;;;;;;;42.28;24.05;;;;;;;;;;5157695;27;20486;-71
2021/12/22 05:45:48;;;;;;;43.10;25.80;;;;;;;;;;5157817;27;20046;-71
2021/12/22 05:48:14;;;;;;;42.42;26.23;;;;;;;;;;5157953;27;20058;-71
2021/12/22 05:50:45;;;;;;;41.45;25.98;;;;;;;;;;5158108;27;20120;-70
2021/12/22 05:53:11;;;;;;;42.83;24.90;;;;;;;;;;5140638;27;20042;-70
2021/12/22 05:55:37;;;;;;;43.88;25.50;;;;;;;;;;5157756;27;20501;-71
2021/12/22 05:58:03;;;;;;;37.30;24.55;;;;;;;;;;5139220;27;20050;-70
2021/12/22 06:00:29;;;;;;;39.33;23.75;;;;;;;;;;5158180;27;20043;-70
2021/12/22 06:02:56;;;;;;;37.90;24.05;;;;;;;;;;5157519;27;20078;-71
2021/12/22 06:05:22;;;;;;;;;;;;;;;;;;5123448;27;20110;-71
2021/12/22 06:07:48;;;;;;;35.03;22.77;;;;;;;;;;5138888;27;19919;-71
2021/12/22 06:10:14;;;;;;;42.15;23.35;;;;;;;;;;5157526;27;20039;-71
2021/12/22 06:12:40;;;;;;;37.97;24.05;;;;;;;;;;5157352;27;20452;-70
2021/12/22 06:15:06;;;;;;;39.55;24.88;;;;;;;;;;5157590;27;20039;-71
2021/12/22 06:17:32;;;;;;;37.40;23.58;;;;;;;;;;5157094;27;20489;-71
2021/12/22 06:20:00;;;;;;;38.23;24.27;;;;;;;;;;5157227;27;20490;-71
2021/12/22 06:22:28;;;;;;;38.35;23.48;;;;;;;;;;5157263;27;20042;-70
2021/12/22 06:24:54;;;;;;;39.33;24.20;;;;;;;;;;5139110;27;20050;-71
2021/12/22 06:27:20;;;;;;;41.30;23.20;;;;;;;;;;5157678;27;20043;-71
2021/12/22 06:29:46;;;;;;;36.00;22.42;;;;;;;;;;5157623;27;20050;-70
2021/12/22 06:32:12;;;;;;;35.33;22.77;;;;;;;;;;5157441;27;20039;-71
2021/12/22 06:34:39;;;;;;;38.05;23.85;;;;;;;;;;5156724;27;20130;-70
2021/12/22 06:37:05;;;;;;;39.53;23.17;;;;;;;;;;5156740;27;20443;-68
2021/12/22 06:39:31;;;;;;;41.00;23.83;;;;;;;;;;5156255;27;20042;-69
2021/12/22 06:41:57;;;;;;;;;;;;;;;;;;5156895;27;20443;-68
2021/12/22 06:44:23;;;;;;;41.73;24.97;;;;;;;;;;5156539;27;19919;-68
2021/12/22 06:46:50;;;;;;;36.50;22.35;;;;;;;;;;5156823;27;20049;-68
2021/12/22 06:49:16;;;;;;;40.30;23.37;;;;;;;;;;5156055;27;20043;-68
2021/12/22 06:51:42;;;;;;;40.63;22.77;;;;;;;;;;5155904;27;20039;-70
2021/12/22 06:54:08;;;;;;;41.70;24.27;;;;;;;;;;5138134;27;20038;-69
2021/12/22 06:56:34;;;;;;;39.83;23.23;;;;;;;;;;5155773;27;20062;-68
2021/12/22 06:59:01;;;;;;;41.33;23.23;;;;;;;;;;5155616;27;20095;-69
2021/12/22 07:01:31;;;;;;;43.90;23.43;;;;;;;;;;5156540;27;20086;-69
2021/12/22 07:03:57;;;;;;;44.57;23.63;;;;;;;;;;5155619;27;20046;-69
2021/12/22 07:06:23;;;;;;;42.63;23.73;;;;;;;;;;5156097;27;20046;-69
2021/12/22 07:08:49;;;;;;;42.15;22.23;;;;;;;;;;5136936;27;20530;-68
2021/12/22 07:11:15;;;;;;;42.85;24.08;;;;;;;;;;5155499;27;20093;-69
2021/12/22 07:13:41;;;;;;;41.00;22.40;;;;;;;;;;5136632;27;20557;-69
2021/12/22 07:16:08;;;;;;;46.25;23.77;;;;;;;;;;5154926;27;20491;-68
2021/12/22 07:18:34;;;;;;;39.85;23.42;;;;;;;;;;5154604;27;20065;-69
2021/12/22 07:21:00;;;;;;;41.63;24.20;;;;;;;;;;5137209;27;20083;-66
2021/12/22 07:23:27;;;;;;;40.83;22.70;;;;;;;;;;5155010;27;20045;-68
2021/12/22 07:25:53;;;;;;;;;;;;;;;;;;5154336;27;20046;-68
2021/12/22 07:28:19;;;;;;;39.77;22.03;;;;;;;;;;5136087;27;19925;-69
2021/12/22 07:30:45;;;;;;;40.85;22.67;;;;;;;;;;5135720;27;20130;-69
2021/12/22 07:33:11;;;;;;;38.72;21.80;;;;;;;;;;5134827;27;20042;-69
2021/12/22 07:35:47;;;;;;;40.72;22.80;;;;;;;;;;5153946;27;20103;-69
2021/12/22 07:38:23;;;;;;;44.00;22.73;;;;;;;;;;5153362;27;20491;-69
2021/12/22 07:40:49;;;;;;;43.87;22.53;;;;;;;;;;5154434;27;20099;-69
2021/12/22 07:43:15;;;;;;;36.42;21.15;;;;;;;;;;5153316;27;20443;-68
2021/12/22 07:45:41;;;;;;;37.78;21.88;;;;;;;;;;5153577;27;20123;-68
2021/12/22 07:48:07;;;;;;;43.35;23.05;;;;;;;;;;5152771;27;20043;-68
2021/12/22 07:50:33;;;;;;;45.88;22.25;;;;;;;;;;5152105;27;20122;-68
2021/12/22 07:52:59;;;;;;;39.00;21.98;;;;;;;;;;5133699;27;20549;-69
2021/12/22 07:55:25;;;;;;;37.35;21.27;;;;;;;;;;5152827;27;20119;-71
2021/12/22 07:57:51;;;;;;;42.53;21.75;;;;;;;;;;5152716;27;20042;-70
2021/12/22 08:00:18;;;;;;;39.63;22.00;;;;;;;;;;5152391;27;20045;-68
2021/12/22 08:02:44;;;;;;;37.88;20.92;;;;;;;;;;5152028;27;20043;-71
2021/12/22 08:05:10;;;;;;;41.20;21.02;;;;;;;;;;5152627;27;20440;-69
2021/12/22 08:07:36;;;;;;;37.67;21.00;;;;;;;;;;5153423;27;20505;-69
2021/12/22 08:10:04;;;;;;;37.53;21.58;;;;;;;;;;5152343;27;20046;-68
2021/12/22 08:12:30;;;;;;;36.57;20.37;;;;;;;;;;5152115;27;20058;-68
2021/12/22 08:14:56;;;;;;;36.92;21.95;;;;;;;;;;5152121;27;20089;-68
2021/12/22 08:17:23;;;;;;;38.45;22.30;;;;;;;;;;5134002;27;20065;-68
2021/12/22 08:19:49;;;;;;;37.87;21.17;;;;;;;;;;5152581;27;20340;-68
2021/12/22 08:22:16;;;;;;;36.40;20.83;;;;;;;;;;5151902;27;20117;-69
2021/12/22 08:24:42;;;;;;;35.88;21.10;;;;;;;;;;5151944;27;20042;-68
2021/12/22 08:27:08;;;;;;;39.90;21.40;;;;;;;;;;5152008;27;20046;-70
2021/12/22 08:29:36;;;;;;;34.53;20.20;;;;;;;;;;5133916;27;20086;-68
2021/12/22 08:32:03;;;;;;;36.77;21.17;;;;;;;;;;5151793;27;20076;-69
2021/12/22 08:34:36;;;;;;;36.37;21.37;;;;;;;;;;5152033;27;20078;-69
2021/12/22 08:39:47;;;;;;;36.00;21.10;;;;;;;;;;5138109;27;20054;-69
2021/12/22 08:42:13;;;;;;;38.05;21.10;;;;;;;;;;5156540;27;20481;-68
2021/12/22 08:44:39;;;;;;;37.55;23.25;;;;;;;;;;5156320;27;20042;-68
2021/12/22 08:47:05;;;;;;;40.42;22.83;;;;;;;;;;5156812;27;20069;-68
2021/12/22 08:49:32;;;;;;;37.70;21.13;;;;;;;;;;5137828;27;20054;-67
2021/12/22 08:51:58;;;;;;;38.25;21.98;;;;;;;;;;5156094;27;20038;-68
2021/12/22 08:54:24;;;;;;;41.17;22.95;;;;;;;;;;5156816;27;20115;-69
2021/12/22 08:56:50;;;;;;;40.88;22.63;;;;;;;;;;5156008;27;20050;-68
2021/12/22 08:59:17;;;;;;;36.77;22.67;;;;;;;;;;5156743;27;20434;-72
2021/12/22 09:01:43;;;;;;;39.97;22.83;;;;;;;;;;5137745;27;20050;-67
2021/12/22 09:04:09;;;;;;;;;;;;;;;;;;5156627;27;20107;-70
2021/12/22 09:06:35;;;;;;;39.17;21.97;;;;;;;;;;5156227;27;19923;-69
2021/12/22 09:09:02;;;;;;;36.40;22.13;;;;;;;;;;5156310;27;20046;-70
2021/12/22 09:11:27;;;;;;;;;;;;;;;;;;5157143;27;20340;-71
2021/12/22 09:13:54;;;;;;;37.43;21.60;;;;;;;;;;5156096;27;19971;-71
2021/12/22 09:16:20;;;;;;;35.15;21.42;;;;;;;;;;5137207;27;20047;-72
2021/12/22 09:18:46;;;;;;;37.85;22.00;;;;;;;;;;5155979;27;20143;-70
2021/12/22 09:21:12;;;;;;;39.53;23.52;;;;;;;;;;5156008;27;20553;-70
2021/12/22 09:23:38;;;;;;;36.95;20.25;;;;;;;;;;5156100;27;20491;-68
2021/12/22 09:26:05;;;;;;;43.53;22.08;;;;;;;;;;5137340;27;20046;-71
2021/12/22 09:28:31;;;;;;;37.67;21.57;;;;;;;;;;5155590;27;20050;-69
2021/12/22 09:30:57;;;;;;;36.97;21.40;;;;;;;;;;5156533;27;20048;-69
2021/12/22 09:33:25;;;;;;;40.38;22.17;;;;;;;;;;5156354;27;20131;-71
2021/12/22 09:35:52;;;;;;;40.83;22.87;;;;;;;;;;5155988;27;20129;-69
2021/12/22 09:38:18;;;;;;;37.60;21.60;;;;;;;;;;5155498;27;20042;-71
2021/12/22 09:40:45;;;;;;;36.55;21.92;;;;;;;;;;5155905;27;20053;-69
2021/12/22 09:43:11;;;;;;;43.93;21.87;;;;;;;;;;5155392;27;20074;-68
2021/12/22 09:45:43;;;;;;;37.55;21.40;;;;;;;;;;5155015;27;20542;-69
2021/12/22 09:50:47;;;;;;;42.42;21.83;;;;;;;;;;5155869;27;20496;-70
2021/12/22 09:53:14;;;;;;;39.93;22.07;;;;;;;;;;5155803;27;20050;-68
2021/12/22 09:55:41;;;;;;;42.13;22.00;;;;;;;;;;5155418;27;20039;-69
2021/12/22 09:58:09;;;;;;;37.90;21.75;;;;;;;;;;5155142;27;20100;-72
2021/12/22 10:00:36;;;;;;;40.43;21.33;;;;;;;;;;5155094;27;20207;-72
2021/12/22 10:03:04;;;;;;;38.10;21.03;;;;;;;;;;5155744;27;20047;-71
2021/12/22 10:05:30;;;;;;;38.33;20.97;;;;;;;;;;5154962;27;20046;-70
2021/12/22 10:08:10;;;;;;;37.85;21.05;;;;;;;;;;5137169;27;20051;-69
2021/12/22 10:10:38;;;;;;;37.87;21.17;;;;;;;;;;5155297;27;20039;-74
2021/12/22 10:13:13;;;;;;;38.73;21.33;;;;;;;;;;5155144;27;20043;-71
2021/12/22 10:15:40;;;;;;;38.00;22.30;;;;;;;;;;5155289;27;20129;-78
2021/12/22 10:18:17;;;;;;;37.70;21.53;;;;;;;;;;5155697;27;20464;-72
2021/12/22 10:20:44;;;;;;;34.00;21.17;;;;;;;;;;5154891;27;20137;-72
2021/12/22 10:23:23;;;;;;;37.43;21.47;;;;;;;;;;5154612;27;20443;-72
2021/12/22 10:25:52;;;;;;;41.77;22.10;;;;;;;;;;5154842;27;20046;-71
2021/12/22 10:28:19;;;;;;;39.30;21.43;;;;;;;;;;5136472;27;20058;-68
2021/12/22 10:30:45;;;;;;;39.33;21.30;;;;;;;;;;5154963;27;20051;-69
2021/12/22 10:33:11;;;;;;;;;;;;;;;;;;5155203;27;20045;-72
2021/12/22 10:35:39;;;;;;;40.57;21.10;;;;;;;;;;5136650;27;19919;-71
2021/12/22 10:38:05;;;;;;;39.37;21.90;;;;;;;;;;5155154;27;20494;-70
2021/12/22 10:40:31;;;;;;;;;;;;;;;;;;5155019;27;20042;-77
2021/12/22 10:42:58;;;;;;;36.87;21.83;;;;;;;;;;5154597;27;19930;-69
2021/12/22 10:45:25;;;;;;;40.17;21.97;;;;;;;;;;5154500;27;20533;-68
2021/12/22 10:50:41;;;;;;;37.10;20.33;;;;;;;;;;5154408;27;20099;-71
2021/12/22 10:53:07;;;;;;;37.28;20.58;;;;;;;;;;5154745;27;20039;-74
2021/12/22 10:55:41;;;;;;;38.50;21.37;;;;;;;;;;5154365;27;20067;-71
2021/12/22 10:58:25;;;;;;;37.57;21.50;;;;;;;;;;5154378;27;20455;-74
2021/12/22 11:01:03;;;;;;;36.40;20.53;;;;;;;;;;5154674;27;20049;-71
2021/12/22 11:03:35;;;;;;;35.03;19.70;;;;;;;;;;5154127;27;20045;-70
2021/12/22 11:06:03;;;;;;;35.10;20.67;;;;;;;;;;5136920;27;20494;-70
2021/12/22 11:08:29;;;;;;;34.43;20.03;;;;;;;;;;5135727;27;20049;-73
2021/12/22 11:10:55;;;;;;;37.08;21.17;;;;;;;;;;5154873;27;20058;-71
2021/12/22 11:13:22;;;;;;;36.42;20.77;;;;;;;;;;5154548;27;20129;-69
2021/12/22 11:15:48;;;;;;;36.50;20.47;;;;;;;;;;5135714;27;20046;-70
2021/12/22 11:18:25;;;;;;;37.83;20.73;;;;;;;;;;5154143;27;20059;-72
2021/12/22 11:21:12;;;;;;;34.10;20.60;;;;;;;;;;5154753;27;20058;-70
2021/12/22 11:23:38;;;;;;;37.50;20.85;;;;;;;;;;5135225;27;20081;-69
2021/12/22 11:26:05;;;;;;;36.03;19.63;;;;;;;;;;5153888;27;20390;-70
2021/12/22 11:28:33;;;;;;;38.88;21.73;;;;;;;;;;5153749;27;20039;-69
2021/12/22 11:30:59;;;;;;;35.47;21.03;;;;;;;;;;5153795;27;20043;-68
2021/12/22 11:33:27;;;;;;;36.33;21.52;;;;;;;;;;5153644;27;20047;-69
2021/12/22 11:35:56;;;;;;;38.93;20.83;;;;;;;;;;5135298;27;20146;-71
2021/12/22 11:38:23;;;;;;;35.63;20.77;;;;;;;;;;5118396;27;20387;-70
2021/12/22 11:40:55;;;;;;;37.17;21.27;;;;;;;;;;5153518;27;20047;-69
2021/12/22 11:43:22;;;;;;;39.30;20.33;;;;;;;;;;5153429;27;20057;-69
2021/12/22 11:45:49;;;;;;;32.50;19.75;;;;;;;;;;5154103;27;20038;-71
2021/12/22 11:48:16;;;;;;;38.10;20.20;;;;;;;;;;5153526;27;20119;-71
2021/12/22 11:50:46;;;;;;;34.60;20.47;;;;;;;;;;5154150;27;20042;-69
2021/12/22 11:53:12;;;;;;;31.43;19.77;;;;;;;;;;5134672;27;20381;-68
2021/12/22 11:55:41;;;;;;;32.80;18.75;;;;;;;;;;5153753;27;20047;-68
2021/12/22 11:58:15;;;;;;;34.20;19.87;;;;;;;;;;5152636;27;20050;-69
2021/12/22 12:00:42;;;;;;;35.83;19.13;;;;;;;;;;5153182;27;20130;-69
2021/12/22 12:03:22;;;;;;;31.37;18.27;;;;;;;;;;5134962;27;20443;-70
2021/12/22 12:06:09;;;;;;;31.70;18.77;;;;;;;;;;5153691;27;20083;-70
2021/12/22 12:08:37;;;;;;;33.10;19.25;;;;;;;;;;5153122;27;20050;-74
2021/12/22 12:11:04;;;;;;;33.67;19.53;;;;;;;;;;5153192;27;20469;-70
2021/12/22 12:21:45;;;;;;;;;;;;;;;;;;5153734;27;20410;-70
2021/12/22 12:24:40;;;;;;;31.83;19.03;;;;;;;;;;5117582;27;19918;-70
2021/12/22 12:27:25;;;;;;;36.03;20.37;;;;;;;;;;5116103;27;20212;-69
2021/12/22 12:30:01;;;;;;;33.10;19.20;;;;;;;;;;5152980;27;20049;-69
2021/12/22 12:32:42;;;;;;;34.78;19.30;;;;;;;;;;5153049;27;20125;-70
2021/12/22 12:38:01;;;;;;;33.40;19.53;;;;;;;;;;5152937;27;20115;-71
2021/12/22 12:40:46;;;;;;;34.17;19.87;;;;;;;;;;5153055;27;20046;-70
2021/12/22 12:43:12;;;;;;;35.80;18.87;;;;;;;;;;5153276;27;20089;-75
2021/12/22 12:45:42;;;;;;;32.58;18.38;;;;;;;;;;5152970;27;20078;-71
2021/12/22 12:48:27;;;;;;;31.30;18.43;;;;;;;;;;5152949;27;20134;-74
2021/12/22 12:51:12;;;;;;;32.00;18.40;;;;;;;;;;5152739;27;20046;-70
2021/12/22 12:53:42;;;;;;;31.30;18.43;;;;;;;;;;5152803;27;20559;-67
2021/12/22 12:56:09;;;;;;;29.60;17.97;;;;;;;;;;5152560;27;20125;-72
2021/12/22 12:58:49;;;;;;;30.30;18.63;;;;;;;;;;5152943;27;20486;-76
2021/12/22 13:01:15;;;;;;;33.47;18.83;;;;;;;;;;5153306;27;20178;-69
2021/12/22 13:03:50;;;;;;;28.27;16.95;;;;;;;;;;5134711;27;20114;-70
2021/12/22 13:06:16;;;;;;;31.27;18.80;;;;;;;;;;5152637;27;20051;-69
2021/12/22 13:08:44;;;;;;;31.83;18.00;;;;;;;;;;5152853;27;20038;-73
2021/12/22 13:11:14;;;;;;;30.37;17.33;;;;;;;;;;5152891;27;20051;-73
2021/12/22 13:15:46;;;;;;;29.07;17.30;;;;;;;;;;5116877;27;20072;-72
2021/12/22 13:16:39;;;;;;;29.80;18.87;;;;;;;;;;5152341;27;20490;-73
2021/12/22 13:19:05;;;;;;;29.83;18.53;;;;;;;;;;5133759;27;20058;-71
2021/12/22 13:21:31;;;;;;;33.90;18.90;;;;;;;;;;5152616;27;20043;-71
2021/12/22 13:23:57;;;;;;;32.13;17.95;;;;;;;;;;5153678;27;20432;-73
2021/12/22 13:26:23;;;;;;;29.35;17.70;;;;;;;;;;5157137;27;20047;-69
2021/12/22 13:28:49;;;;;;;27.27;18.00;;;;;;;;;;5156843;27;20082;-69
2021/12/22 13:31:16;;;;;;;34.17;18.65;;;;;;;;;;5156315;27;20049;-71
2021/12/22 13:34:02;;;;;;;28.27;18.08;;;;;;;;;;5156212;27;20436;-69
2021/12/22 13:36:28;;;;;;;30.43;17.63;;;;;;;;;;5156296;27;20202;-72
2021/12/22 13:38:56;;;;;;;32.47;18.30;;;;;;;;;;5156208;27;20047;-69
2021/12/22 13:41:27;;;;;;;31.60;18.30;;;;;;;;;;5137772;27;20092;-70
2021/12/22 13:43:53;;;;;;;31.33;18.17;;;;;;;;;;5137271;27;20049;-69
2021/12/22 13:46:24;;;;;;;30.80;18.10;;;;;;;;;;5137315;27;20038;-68
2021/12/22 13:48:52;;;;;;;30.73;17.27;;;;;;;;;;5155704;27;20089;-70
2021/12/22 13:51:20;;;;;;;30.77;18.33;;;;;;;;;;5155810;27;20178;-70
2021/12/22 13:53:46;;;;;;;30.50;18.70;;;;;;;;;;5155606;27;20042;-73
2021/12/22 13:56:14;;;;;;;30.03;18.53;;;;;;;;;;5155642;27;20084;-71
2021/12/22 13:58:42;;;;;;;30.90;17.80;;;;;;;;;;5155757;27;20410;-71
2021/12/22 14:01:12;;;;;;;30.37;18.37;;;;;;;;;;5155558;27;20038;-69
2021/12/22 14:03:38;;;;;;;32.00;18.60;;;;;;;;;;5155400;27;20218;-71
2021/12/22 14:06:08;;;;;;;32.25;18.75;;;;;;;;;;5155329;27;20133;-71
2021/12/22 14:08:34;;;;;;;33.87;19.20;;;;;;;;;;5155456;27;20046;-70
2021/12/22 14:11:00;;;;;;;;;;;;;;;;;;5155601;27;20051;-69
2021/12/22 14:13:30;;;;;;;30.93;17.93;;;;;;;;;;5136393;27;19919;-71
2021/12/22 14:15:57;;;;;;;31.00;18.97;;;;;;;;;;5155409;27;20039;-73
2021/12/22 14:18:35;;;;;;;30.33;18.23;;;;;;;;;;5154733;27;20145;-74
2021/12/22 14:21:01;;;;;;;32.07;19.57;;;;;;;;;;5155055;27;20482;-74
2021/12/22 14:23:28;;;;;;;33.03;19.90;;;;;;;;;;5155279;27;20336;-72
2021/12/22 14:26:09;;;;;;;32.80;19.67;;;;;;;;;;5154997;27;20047;-71
2021/12/22 14:28:36;;;;;;;33.50;18.87;;;;;;;;;;5154943;27;20050;-72
2021/12/22 14:31:06;;;;;;;30.85;19.42;;;;;;;;;;5154829;27;20402;-71
2021/12/22 14:33:32;;;;;;;32.67;19.53;;;;;;;;;;5136728;27;20466;-71
2021/12/22 14:36:03;;;;;;;29.95;18.73;;;;;;;;;;5135763;27;20082;-72
2021/12/22 14:38:33;;;;;;;33.03;19.13;;;;;;;;;;5154675;27;20082;-71
2021/12/22 14:41:05;;;;;;;28.60;18.43;;;;;;;;;;5154621;27;20103;-71
2021/12/22 14:43:38;;;;;;;33.07;19.43;;;;;;;;;;5154205;27;20073;-72
2021/12/22 14:46:05;;;;;;;30.17;17.77;;;;;;;;;;5154570;27;20084;-75
2021/12/22 14:48:33;;;;;;;;;;;;;;;;;;5136344;27;20051;-71
2021/12/22 14:51:10;;;;;;;33.70;18.90;;;;;;;;;;5154533;27;19918;-71
2021/12/22 14:53:42;;;;;;;32.17;18.90;;;;;;;;;;5136614;27;20053;-71
2021/12/22 14:56:19;;;;;;;33.37;19.27;;;;;;;;;;5154864;27;20050;-72
2021/12/22 14:58:46;;;;;;;30.95;18.25;;;;;;;;;;5154511;27;20047;-72
2021/12/22 15:01:12;;;;;;;32.47;19.73;;;;;;;;;;5153892;27;20483;-73
2021/12/22 15:03:39;;;;;;;34.07;20.27;;;;;;;;;;5154124;27;20045;-72
2021/12/22 15:06:06;;;;;;;32.70;19.45;;;;;;;;;;5118921;27;20065;-72
2021/12/22 15:08:32;;;;;;;32.97;20.33;;;;;;;;;;5154113;27;20168;-72
2021/12/22 15:11:00;;;;;;;32.15;18.83;;;;;;;;;;5154510;27;20043;-72
2021/12/22 15:13:26;;;;;;;33.77;19.90;;;;;;;;;;5154908;27;20038;-72
2021/12/22 15:15:53;;;;;;;35.42;19.98;;;;;;;;;;5155568;27;20043;-72